sensor_id;sensor_type;location;lat;lon;timestamp;pressure;altitude;pressure_sealevel;temperature;humidity
32875;BME280;40468;42.128;24.750;2023-04-02T00:01:05;98770.41;;;11.31;56.23
32875;BME280;40468;42.128;24.750;2023-04-02T00:02:45;98771.50;;;11.27;55.80
32875;BME280;40468;42.128;24.750;2023-04-02T00:04:19;98774.13;;;11.27;55.86
32875;BME280;40468;42.128;24.750;2023-04-02T00:05:52;98786.31;;;11.26;56.13
32875;BME280;40468;42.128;24.750;2023-04-02T00:07:27;98771.19;;;11.19;55.93
32875;BME280;40468;42.128;24.750;2023-04-02T00:09:19;98775.66;;;11.16;56.03
32875;BME280;40468;42.128;24.750;2023-04-02T00:10:54;98776.03;;;11.10;56.42
32875;BME280;40468;42.128;24.750;2023-04-02T00:12:27;98769.38;;;11.06;56.32
32875;BME280;40468;42.128;24.750;2023-04-02T00:13:59;98767.88;;;11.02;56.18
32875;BME280;40468;42.128;24.750;2023-04-02T00:15:33;98767.13;;;11.00;56.59
32875;BME280;40468;42.128;24.750;2023-04-02T00:17:05;98753.22;;;10.87;56.46
32875;BME280;40468;42.128;24.750;2023-04-02T00:18:41;98763.63;;;10.87;56.53
32875;BME280;40468;42.128;24.750;2023-04-02T00:20:15;98767.06;;;10.87;56.85
32875;BME280;40468;42.128;24.750;2023-04-02T00:21:49;98761.78;;;10.89;56.75
32875;BME280;40468;42.128;24.750;2023-04-02T00:23:22;98768.75;;;10.88;56.44
32875;BME280;40468;42.128;24.750;2023-04-02T00:24:55;98763.63;;;10.87;56.58
32875;BME280;40468;42.128;24.750;2023-04-02T00:26:29;98764.66;;;10.84;56.79
32875;BME280;40468;42.128;24.750;2023-04-02T00:28:02;98770.69;;;10.85;56.47
32875;BME280;40468;42.128;24.750;2023-04-02T00:29:34;98766.44;;;10.84;56.73
32875;BME280;40468;42.128;24.750;2023-04-02T00:31:09;98767.38;;;10.83;56.77
32875;BME280;40468;42.128;24.750;2023-04-02T00:32:41;98771.72;;;10.82;56.86
32875;BME280;40468;42.128;24.750;2023-04-02T00:34:17;98765.69;;;10.82;56.74
32875;BME280;40468;42.128;24.750;2023-04-02T00:35:52;98768.41;;;10.80;56.57
32875;BME280;40468;42.128;24.750;2023-04-02T00:37:27;98769.22;;;10.81;56.86
32875;BME280;40468;42.128;24.750;2023-04-02T00:39:18;98766.81;;;10.78;56.76
32875;BME280;40468;42.128;24.750;2023-04-02T00:40:54;98774.00;;;10.74;56.89
32875;BME280;40468;42.128;24.750;2023-04-02T00:42:29;98768.03;;;10.72;56.96
32875;BME280;40468;42.128;24.750;2023-04-02T00:44:01;98770.72;;;10.70;56.81
32875;BME280;40468;42.128;24.750;2023-04-02T00:45:36;98782.91;;;10.70;57.23
32875;BME280;40468;42.128;24.750;2023-04-02T00:47:16;98782.25;;;10.66;57.35
32875;BME280;40468;42.128;24.750;2023-04-02T00:48:51;98779.59;;;10.68;57.17
32875;BME280;40468;42.128;24.750;2023-04-02T00:50:29;98782.25;;;10.66;57.50
32875;BME280;40468;42.128;24.750;2023-04-02T00:52:04;98787.59;;;10.65;57.59
32875;BME280;40468;42.128;24.750;2023-04-02T00:53:38;98783.47;;;10.61;57.66
32875;BME280;40468;42.128;24.750;2023-04-02T00:55:15;98780.97;;;10.59;57.65
32875;BME280;40468;42.128;24.750;2023-04-02T00:56:51;98777.72;;;10.56;57.54
32875;BME280;40468;42.128;24.750;2023-04-02T00:58:26;98781.91;;;10.58;57.52
32875;BME280;40468;42.128;24.750;2023-04-02T01:00:01;98770.75;;;10.56;57.66
32875;BME280;40468;42.128;24.750;2023-04-02T01:01:41;98771.41;;;10.60;57.33
32875;BME280;40468;42.128;24.750;2023-04-02T01:03:27;98767.84;;;10.61;57.46
32875;BME280;40468;42.128;24.750;2023-04-02T01:05:00;98779.09;;;10.61;57.56
32875;BME280;40468;42.128;24.750;2023-04-02T01:06:35;98776.41;;;10.63;57.19
32875;BME280;40468;42.128;24.750;2023-04-02T01:08:14;98779.97;;;10.62;57.27
32875;BME280;40468;42.128;24.750;2023-04-02T01:10:05;98781.81;;;10.60;57.44
32875;BME280;40468;42.128;24.750;2023-04-02T01:11:51;98774.91;;;10.59;57.38
32875;BME280;40468;42.128;24.750;2023-04-02T01:13:30;98788.03;;;10.57;57.39
32875;BME280;40468;42.128;24.750;2023-04-02T01:15:09;98773.75;;;10.50;57.05
32875;BME280;40468;42.128;24.750;2023-04-02T01:16:49;98788.31;;;10.53;57.09
32875;BME280;40468;42.128;24.750;2023-04-02T01:18:33;98792.88;;;10.49;57.46
32875;BME280;40468;42.128;24.750;2023-04-02T01:20:44;98785.38;;;10.44;57.35
32875;BME280;40468;42.128;24.750;2023-04-02T01:22:22;98789.88;;;10.41;57.49
32875;BME280;40468;42.128;24.750;2023-04-02T01:24:02;98793.44;;;10.40;57.61
32875;BME280;40468;42.128;24.750;2023-04-02T01:25:40;98786.66;;;10.37;57.50
32875;BME280;40468;42.128;24.750;2023-04-02T01:27:16;98796.16;;;10.38;57.40
32875;BME280;40468;42.128;24.750;2023-04-02T01:29:00;98792.59;;;10.39;57.31
32875;BME280;40468;42.128;24.750;2023-04-02T01:30:33;98792.88;;;10.35;57.41
32875;BME280;40468;42.128;24.750;2023-04-02T01:32:07;98790.25;;;10.35;57.74
32875;BME280;40468;42.128;24.750;2023-04-02T01:33:41;98792.69;;;10.38;57.64
32875;BME280;40468;42.128;24.750;2023-04-02T01:35:12;98790.84;;;10.40;57.46
32875;BME280;40468;42.128;24.750;2023-04-02T01:36:53;98792.50;;;10.41;57.32
32875;BME280;40468;42.128;24.750;2023-04-02T01:38:32;98793.44;;;10.40;57.27
32875;BME280;40468;42.128;24.750;2023-04-02T01:40:29;98793.53;;;10.38;57.16
32875;BME280;40468;42.128;24.750;2023-04-02T01:42:10;98790.09;;;10.38;57.56
32875;BME280;40468;42.128;24.750;2023-04-02T01:43:46;98789.16;;;10.39;57.52
32875;BME280;40468;42.128;24.750;2023-04-02T01:45:25;98792.59;;;10.39;57.18
32875;BME280;40468;42.128;24.750;2023-04-02T01:47:01;98788.97;;;10.42;57.03
32875;BME280;40468;42.128;24.750;2023-04-02T01:48:33;98795.78;;;10.44;57.05
32875;BME280;40468;42.128;24.750;2023-04-02T01:50:19;98792.31;;;10.44;57.04
32875;BME280;40468;42.128;24.750;2023-04-02T01:51:54;98795.84;;;10.43;56.87
32875;BME280;40468;42.128;24.750;2023-04-02T01:53:27;98799.22;;;10.45;56.97
32875;BME280;40468;42.128;24.750;2023-04-02T01:55:01;98796.50;;;10.46;57.06
32875;BME280;40468;42.128;24.750;2023-04-02T01:56:33;98792.03;;;10.48;56.92
32875;BME280;40468;42.128;24.750;2023-04-02T01:58:05;98798.00;;;10.51;56.75
32875;BME280;40468;42.128;24.750;2023-04-02T01:59:39;98797.91;;;10.52;56.85
32875;BME280;40468;42.128;24.750;2023-04-02T02:01:14;98785.06;;;10.49;56.79
32875;BME280;40468;42.128;24.750;2023-04-02T02:02:48;98795.22;;;10.54;56.80
32875;BME280;40468;42.128;24.750;2023-04-02T02:04:21;98794.38;;;10.53;56.81
32875;BME280;40468;42.128;24.750;2023-04-02T02:05:52;98799.59;;;10.53;56.63
32875;BME280;40468;42.128;24.750;2023-04-02T02:07:25;98795.47;;;10.49;56.78
32875;BME280;40468;42.128;24.750;2023-04-02T02:08:59;98788.59;;;10.48;56.74
32875;BME280;40468;42.128;24.750;2023-04-02T02:10:35;98791.59;;;10.42;56.99
32875;BME280;40468;42.128;24.750;2023-04-02T02:12:09;98788.34;;;10.38;56.87
32875;BME280;40468;42.128;24.750;2023-04-02T02:13:46;98786.00;;;10.34;57.27
32875;BME280;40468;42.128;24.750;2023-04-02T02:15:20;98776.59;;;10.31;57.09
32875;BME280;40468;42.128;24.750;2023-04-02T02:16:55;98787.97;;;10.30;57.43
32875;BME280;40468;42.128;24.750;2023-04-02T02:18:27;98775.19;;;10.25;57.55
32875;BME280;40468;42.128;24.750;2023-04-02T02:20:00;98782.97;;;10.25;57.67
32875;BME280;40468;42.128;24.750;2023-04-02T02:21:41;98777.88;;;10.24;57.75
32875;BME280;40468;42.128;24.750;2023-04-02T02:23:14;98775.19;;;10.25;57.40
32875;BME280;40468;42.128;24.750;2023-04-02T02:24:47;98772.69;;;10.24;57.73
32875;BME280;40468;42.128;24.750;2023-04-02T02:26:21;98761.44;;;10.23;57.52
32875;BME280;40468;42.128;24.750;2023-04-02T02:27:59;98768.50;;;10.21;57.82
32875;BME280;40468;42.128;24.750;2023-04-02T02:29:36;98758.09;;;10.21;57.62
32875;BME280;40468;42.128;24.750;2023-04-02T02:31:15;98684.31;;;9.79;57.50
32875;BME280;40468;42.128;24.750;2023-04-02T02:32:58;98760.69;;;10.21;57.81
32875;BME280;40468;42.128;24.750;2023-04-02T02:34:36;98760.69;;;10.21;57.77
32875;BME280;40468;42.128;24.750;2023-04-02T02:36:15;98762.16;;;10.25;57.51
32875;BME280;40468;42.128;24.750;2023-04-02T02:37:56;98766.50;;;10.27;57.49
32875;BME280;40468;42.128;24.750;2023-04-02T02:39:33;98765.44;;;10.29;57.38
32875;BME280;40468;42.128;24.750;2023-04-02T02:41:13;98761.28;;;10.27;57.50
32875;BME280;40468;42.128;24.750;2023-04-02T02:42:48;98767.88;;;10.32;57.47
32875;BME280;40468;42.128;24.750;2023-04-02T02:44:23;98764.25;;;10.35;57.28
32875;BME280;40468;42.128;24.750;2023-04-02T02:45:56;98765.81;;;10.37;57.03
32875;BME280;40468;42.128;24.750;2023-04-02T02:47:28;98773.56;;;10.39;57.19
32875;BME280;40468;42.128;24.750;2023-04-02T02:49:03;98769.81;;;10.43;57.04
32875;BME280;40468;42.128;24.750;2023-04-02T02:50:37;98775.03;;;10.43;57.14
32875;BME280;40468;42.128;24.750;2023-04-02T02:52:14;98776.69;;;10.44;56.86
32875;BME280;40468;42.128;24.750;2023-04-02T02:53:49;98766.28;;;10.44;57.11
32875;BME280;40468;42.128;24.750;2023-04-02T02:55:25;98771.31;;;10.47;57.15
32875;BME280;40468;42.128;24.750;2023-04-02T02:57:01;98766.13;;;10.47;56.90
32875;BME280;40468;42.128;24.750;2023-04-02T02:58:34;98772.16;;;10.47;57.17
32875;BME280;40468;42.128;24.750;2023-04-02T03:00:06;98768.72;;;10.47;56.94
32875;BME280;40468;42.128;24.750;2023-04-02T03:01:41;98766.94;;;10.47;56.88
32875;BME280;40468;42.128;24.750;2023-04-02T03:03:15;98774.84;;;10.46;57.10
32875;BME280;40468;42.128;24.750;2023-04-02T03:04:51;98774.94;;;10.44;57.34
32875;BME280;40468;42.128;24.750;2023-04-02T03:06:24;98775.78;;;10.45;57.45
32875;BME280;40468;42.128;24.750;2023-04-02T03:07:57;98776.03;;;10.40;57.43
32875;BME280;40468;42.128;24.750;2023-04-02T03:09:37;98773.38;;;10.42;57.68
32875;BME280;40468;42.128;24.750;2023-04-02T03:11:15;98773.38;;;10.42;57.40
32875;BME280;40468;42.128;24.750;2023-04-02T03:12:53;98771.59;;;10.42;57.58
32875;BME280;40468;42.128;24.750;2023-04-02T03:14:30;98781.06;;;10.43;57.72
32875;BME280;40468;42.128;24.750;2023-04-02T03:16:09;98780.22;;;10.43;57.80
32875;BME280;40468;42.128;24.750;2023-04-02T03:17:46;98773.44;;;10.40;57.75
32875;BME280;40468;42.128;24.750;2023-04-02T03:19:25;98777.00;;;10.39;57.56
32875;BME280;40468;42.128;24.750;2023-04-02T03:21:05;98778.00;;;10.37;57.63
32875;BME280;40468;42.128;24.750;2023-04-02T03:22:46;98773.00;;;10.34;57.98
32875;BME280;40468;42.128;24.750;2023-04-02T03:24:26;98772.25;;;10.32;57.99
32875;BME280;40468;42.128;24.750;2023-04-02T03:26:05;98778.38;;;10.31;58.39
32875;BME280;40468;42.128;24.750;2023-04-02T03:27:40;98782.84;;;10.29;58.43
32875;BME280;40468;42.128;24.750;2023-04-02T03:29:17;98786.53;;;10.24;58.56
32875;BME280;40468;42.128;24.750;2023-04-02T03:30:54;98783.28;;;10.21;58.33
32875;BME280;40468;42.128;24.750;2023-04-02T03:32:31;98785.13;;;10.19;58.78
32875;BME280;40468;42.128;24.750;2023-04-02T03:34:10;98786.06;;;10.18;58.74
32875;BME280;40468;42.128;24.750;2023-04-02T03:35:47;98790.41;;;10.17;58.86
32875;BME280;40468;42.128;24.750;2023-04-02T03:37:29;98807.88;;;10.15;58.60
32875;BME280;40468;42.128;24.750;2023-04-02T03:39:10;98796.06;;;10.10;58.90
32875;BME280;40468;42.128;24.750;2023-04-02T03:40:51;98798.75;;;10.08;58.72
32875;BME280;40468;42.128;24.750;2023-04-02T03:42:36;98805.84;;;10.06;58.77
32875;BME280;40468;42.128;24.750;2023-04-02T03:44:19;98809.34;;;10.05;58.89
32875;BME280;40468;42.128;24.750;2023-04-02T03:45:55;98803.41;;;10.03;59.01
32875;BME280;40468;42.128;24.750;2023-04-02T03:47:31;98812.13;;;10.02;59.11
32875;BME280;40468;42.128;24.750;2023-04-02T03:49:07;98810.47;;;10.01;59.45
32875;BME280;40468;42.128;24.750;2023-04-02T03:50:45;98814.84;;;10.00;59.57
32875;BME280;40468;42.128;24.750;2023-04-02T03:52:23;98812.41;;;9.97;59.65
32875;BME280;40468;42.128;24.750;2023-04-02T03:53:58;98811.59;;;9.97;59.46
32875;BME280;40468;42.128;24.750;2023-04-02T03:55:31;98804.69;;;9.96;59.87
32875;BME280;40468;42.128;24.750;2023-04-02T03:57:04;98810.00;;;9.94;59.84
32875;BME280;40468;42.128;24.750;2023-04-02T03:58:44;98800.50;;;9.93;60.18
32875;BME280;40468;42.128;24.750;2023-04-02T04:00:20;98801.34;;;9.94;60.20
32875;BME280;40468;42.128;24.750;2023-04-02T04:01:59;98803.97;;;9.94;59.95
32875;BME280;40468;42.128;24.750;2023-04-02T04:03:37;98803.28;;;9.90;60.26
32875;BME280;40468;42.128;24.750;2023-04-02T04:05:23;98752.50;;;9.54;60.15
32875;BME280;40468;42.128;24.750;2023-04-02T04:06:57;98804.28;;;9.88;60.24
32875;BME280;40468;42.128;24.750;2023-04-02T04:08:33;98801.69;;;9.88;60.53
32875;BME280;40468;42.128;24.750;2023-04-02T04:10:16;98804.47;;;9.85;60.53
32875;BME280;40468;42.128;24.750;2023-04-02T04:11:51;98797.78;;;9.80;60.63
32875;BME280;40468;42.128;24.750;2023-04-02T04:13:28;98792.56;;;9.80;60.87
32875;BME280;40468;42.128;24.750;2023-04-02T04:15:06;98796.94;;;9.80;60.89
32875;BME280;40468;42.128;24.750;2023-04-02T04:16:44;98795.19;;;9.80;60.75
32875;BME280;40468;42.128;24.750;2023-04-02T04:18:27;98795.28;;;9.79;60.83
32875;BME280;40468;42.128;24.750;2023-04-02T04:20:14;98806.41;;;9.81;60.45
32875;BME280;40468;42.128;24.750;2023-04-02T04:21:51;98815.03;;;9.82;60.60
32875;BME280;40468;42.128;24.750;2023-04-02T04:23:28;98812.25;;;9.85;60.70
32875;BME280;40468;42.128;24.750;2023-04-02T04:25:04;98821.66;;;9.87;60.73
32875;BME280;40468;42.128;24.750;2023-04-02T04:26:43;98821.59;;;9.89;60.73
32875;BME280;40468;42.128;24.750;2023-04-02T04:28:22;98815.44;;;9.90;60.54
32875;BME280;40468;42.128;24.750;2023-04-02T04:30:00;98750.25;;;9.48;60.46
32875;BME280;40468;42.128;24.750;2023-04-02T04:31:39;98827.44;;;9.92;60.72
32875;BME280;40468;42.128;24.750;2023-04-02T04:33:18;98828.19;;;9.94;60.54
32875;BME280;40468;42.128;24.750;2023-04-02T04:34:56;98831.44;;;9.98;60.36
32875;BME280;40468;42.128;24.750;2023-04-02T04:36:31;98830.44;;;10.00;60.64
32875;BME280;40468;42.128;24.750;2023-04-02T04:38:09;98824.22;;;10.03;60.25
32875;BME280;40468;42.128;24.750;2023-04-02T04:39:48;98829.31;;;10.05;60.44
32875;BME280;40468;42.128;24.750;2023-04-02T04:41:23;98825.78;;;10.06;60.35
32875;BME280;40468;42.128;24.750;2023-04-02T04:43:00;98826.47;;;10.09;60.39
32875;BME280;40468;42.128;24.750;2023-04-02T04:44:39;98821.16;;;10.11;60.33
32875;BME280;40468;42.128;24.750;2023-04-02T04:46:15;98818.47;;;10.12;60.21
32875;BME280;40468;42.128;24.750;2023-04-02T04:47:53;98821.09;;;10.12;59.74
32875;BME280;40468;42.128;24.750;2023-04-02T04:49:32;98821.91;;;10.13;60.04
32875;BME280;40468;42.128;24.750;2023-04-02T04:51:08;98709.69;;;9.46;60.20
32875;BME280;40468;42.128;24.750;2023-04-02T04:52:42;98817.47;;;10.15;60.06
32875;BME280;40468;42.128;24.750;2023-04-02T04:54:14;98709.50;;;9.49;60.00
32875;BME280;40468;42.128;24.750;2023-04-02T04:55:47;98816.41;;;10.17;60.08
32875;BME280;40468;42.128;24.750;2023-04-02T04:57:26;98762.03;;;9.84;59.79
32875;BME280;40468;42.128;24.750;2023-04-02T04:59:03;98815.34;;;10.21;59.94
32875;BME280;40468;42.128;24.750;2023-04-02T05:00:41;98819.59;;;10.22;59.38
32875;BME280;40468;42.128;24.750;2023-04-02T05:02:22;98758.41;;;9.87;59.44
32875;BME280;40468;42.128;24.750;2023-04-02T05:03:59;98815.00;;;10.28;59.30
32875;BME280;40468;42.128;24.750;2023-04-02T05:05:37;98822.63;;;10.31;59.08
32875;BME280;40468;42.128;24.750;2023-04-02T05:07:13;98822.34;;;10.35;59.19
32875;BME280;40468;42.128;24.750;2023-04-02T05:08:48;98830.69;;;10.40;59.08
32875;BME280;40468;42.128;24.750;2023-04-02T05:10:27;98836.56;;;10.44;58.72
32875;BME280;40468;42.128;24.750;2023-04-02T05:12:07;98839.00;;;10.47;58.75
32875;BME280;40468;42.128;24.750;2023-04-02T05:13:47;98836.22;;;10.50;58.30
32875;BME280;40468;42.128;24.750;2023-04-02T05:15:27;98836.75;;;10.55;58.45
32875;BME280;40468;42.128;24.750;2023-04-02T05:17:03;98839.91;;;10.60;58.24
32875;BME280;40468;42.128;24.750;2023-04-02T05:18:39;98836.94;;;10.66;58.24
32875;BME280;40468;42.128;24.750;2023-04-02T05:20:17;98844.56;;;10.69;57.93
32875;BME280;40468;42.128;24.750;2023-04-02T05:21:56;98852.00;;;10.76;58.01
32875;BME280;40468;42.128;24.750;2023-04-02T05:23:34;98841.41;;;10.79;57.87
32875;BME280;40468;42.128;24.750;2023-04-02T05:25:19;98843.75;;;10.83;57.69
32875;BME280;40468;42.128;24.750;2023-04-02T05:26:57;98845.22;;;10.87;57.44
32875;BME280;40468;42.128;24.750;2023-04-02T05:28:33;98853.47;;;10.94;57.58
32875;BME280;40468;42.128;24.750;2023-04-02T05:30:27;98846.34;;;10.98;57.05
32875;BME280;40468;42.128;24.750;2023-04-02T05:32:08;98842.59;;;11.02;57.34
32875;BME280;40468;42.128;24.750;2023-04-02T05:33:44;98850.13;;;11.06;57.17
32875;BME280;40468;42.128;24.750;2023-04-02T05:35:19;98851.59;;;11.10;56.79
32875;BME280;40468;42.128;24.750;2023-04-02T05:36:54;98793.63;;;10.80;56.65
32875;BME280;40468;42.128;24.750;2023-04-02T05:38:28;98789.22;;;10.80;56.56
32875;BME280;40468;42.128;24.750;2023-04-02T05:40:09;98855.03;;;11.25;56.32
32875;BME280;40468;42.128;24.750;2023-04-02T05:41:45;98859.09;;;11.29;56.57
32875;BME280;40468;42.128;24.750;2023-04-02T05:43:18;98861.22;;;11.37;56.48
32875;BME280;40468;42.128;24.750;2023-04-02T05:45:15;98856.25;;;11.47;56.11
32875;BME280;40468;42.128;24.750;2023-04-02T05:46:53;98870.09;;;11.61;55.80
32875;BME280;40468;42.128;24.750;2023-04-02T05:48:31;98864.94;;;11.74;55.77
32875;BME280;40468;42.128;24.750;2023-04-02T05:50:22;98871.59;;;11.93;55.11
32875;BME280;40468;42.128;24.750;2023-04-02T05:51:57;98859.09;;;12.11;54.64
32875;BME280;40468;42.128;24.750;2023-04-02T05:53:33;98859.84;;;12.25;54.67
32875;BME280;40468;42.128;24.750;2023-04-02T05:55:33;98857.34;;;12.37;54.25
32875;BME280;40468;42.128;24.750;2023-04-02T05:57:11;98861.22;;;12.44;53.83
32875;BME280;40468;42.128;24.750;2023-04-02T05:58:47;98796.88;;;12.04;53.49
32875;BME280;40468;42.128;24.750;2023-04-02T06:00:38;98864.66;;;12.44;53.45
32875;BME280;40468;42.128;24.750;2023-04-02T06:02:18;98766.03;;;11.84;53.72
32875;BME280;40468;42.128;24.750;2023-04-02T06:03:59;98865.81;;;12.53;53.47
32875;BME280;40468;42.128;24.750;2023-04-02T06:05:37;98864.34;;;12.62;53.02
32875;BME280;40468;42.128;24.750;2023-04-02T06:07:13;98869.47;;;12.76;53.17
32875;BME280;40468;42.128;24.750;2023-04-02T06:08:51;98875.72;;;12.86;52.41
32875;BME280;40468;42.128;24.750;2023-04-02T06:10:41;98874.78;;;12.87;52.62
32875;BME280;40468;42.128;24.750;2023-04-02T06:12:26;98880.63;;;12.91;52.65
32875;BME280;40468;42.128;24.750;2023-04-02T06:13:59;98877.81;;;12.94;52.15
32875;BME280;40468;42.128;24.750;2023-04-02T06:15:31;98877.50;;;12.98;52.31
32875;BME280;40468;42.128;24.750;2023-04-02T06:17:04;98876.13;;;13.06;52.04
32875;BME280;40468;42.128;24.750;2023-04-02T06:18:36;98884.34;;;13.12;51.68
32875;BME280;40468;42.128;24.750;2023-04-02T06:20:12;98871.69;;;13.19;51.42
32875;BME280;40468;42.128;24.750;2023-04-02T06:21:47;98789.44;;;12.75;51.14
32875;BME280;40468;42.128;24.750;2023-04-02T06:23:24;98871.78;;;13.30;50.88
32875;BME280;40468;42.128;24.750;2023-04-02T06:25:02;98881.09;;;13.34;50.61
32875;BME280;40468;42.128;24.750;2023-04-02T06:26:38;98873.03;;;13.37;50.49
32875;BME280;40468;42.128;24.750;2023-04-02T06:28:16;98880.53;;;13.42;50.47
32875;BME280;40468;42.128;24.750;2023-04-02T06:29:49;98877.09;;;13.41;50.20
32875;BME280;40468;42.128;24.750;2023-04-02T06:31:29;98876.03;;;13.44;50.23
32875;BME280;40468;42.128;24.750;2023-04-02T06:33:05;98881.38;;;13.42;50.07
32875;BME280;40468;42.128;24.750;2023-04-02T06:34:39;98875.53;;;13.39;49.91
32875;BME280;40468;42.128;24.750;2023-04-02T06:36:13;98895.09;;;13.46;50.16
32875;BME280;40468;42.128;24.750;2023-04-02T06:37:47;98893.31;;;13.47;49.68
32875;BME280;40468;42.128;24.750;2023-04-02T06:39:21;98898.41;;;13.48;49.93
32875;BME280;40468;42.128;24.750;2023-04-02T06:40:57;98890.25;;;13.53;49.97
32875;BME280;40468;42.128;24.750;2023-04-02T06:42:32;98893.59;;;13.55;49.87
32875;BME280;40468;42.128;24.750;2023-04-02T06:44:11;98897.75;;;13.57;49.75
32875;BME280;40468;42.128;24.750;2023-04-02T06:45:45;98893.97;;;13.61;49.57
32875;BME280;40468;42.128;24.750;2023-04-02T06:47:29;98886.56;;;13.55;49.45
32875;BME280;40468;42.128;24.750;2023-04-02T06:49:11;98894.50;;;13.67;49.15
32875;BME280;40468;42.128;24.750;2023-04-02T06:50:47;98891.53;;;13.71;48.99
32875;BME280;40468;42.128;24.750;2023-04-02T06:52:24;98892.13;;;13.75;48.47
32875;BME280;40468;42.128;24.750;2023-04-02T06:53:58;98900.63;;;13.78;48.17
32875;BME280;40468;42.128;24.750;2023-04-02T06:55:40;98904.66;;;13.82;48.04
32875;BME280;40468;42.128;24.750;2023-04-02T06:57:14;98898.47;;;13.83;47.37
32875;BME280;40468;42.128;24.750;2023-04-02T06:58:46;98883.97;;;13.79;47.10
32875;BME280;40468;42.128;24.750;2023-04-02T07:00:24;98898.84;;;13.90;47.16
32875;BME280;40468;42.128;24.750;2023-04-02T07:02:00;98905.56;;;13.94;46.96
32875;BME280;40468;42.128;24.750;2023-04-02T07:03:33;98899.38;;;13.95;46.69
32875;BME280;40468;42.128;24.750;2023-04-02T07:05:07;98910.22;;;14.02;46.74
32875;BME280;40468;42.128;24.750;2023-04-02T07:06:39;98908.31;;;14.04;46.72
32875;BME280;40468;42.128;24.750;2023-04-02T07:08:13;98903.69;;;14.07;46.61
32875;BME280;40468;42.128;24.750;2023-04-02T07:09:45;98910.50;;;14.10;46.54
32875;BME280;40468;42.128;24.750;2023-04-02T07:11:19;98908.59;;;14.12;46.40
32875;BME280;40468;42.128;24.750;2023-04-02T07:12:52;98909.34;;;14.14;46.32
32875;BME280;40468;42.128;24.750;2023-04-02T07:14:24;98914.34;;;14.17;46.17
32875;BME280;40468;42.128;24.750;2023-04-02T07:15:56;98913.28;;;14.20;46.25
32875;BME280;40468;42.128;24.750;2023-04-02T07:17:28;98919.81;;;14.25;46.04
32875;BME280;40468;42.128;24.750;2023-04-02T07:19:00;98918.75;;;14.28;45.96
32875;BME280;40468;42.128;24.750;2023-04-02T07:20:34;98915.81;;;14.32;45.77
32875;BME280;40468;42.128;24.750;2023-04-02T07:22:07;98917.25;;;14.37;45.61
32875;BME280;40468;42.128;24.750;2023-04-02T07:23:41;98929.28;;;14.39;45.41
32875;BME280;40468;42.128;24.750;2023-04-02T07:25:13;98923.94;;;14.41;45.39
32875;BME280;40468;42.128;24.750;2023-04-02T07:26:45;98930.84;;;14.42;45.07
32875;BME280;40468;42.128;24.750;2023-04-02T07:28:18;98937.50;;;14.46;45.16
32875;BME280;40468;42.128;24.750;2023-04-02T07:29:50;98931.22;;;14.48;45.30
32875;BME280;40468;42.128;24.750;2023-04-02T07:31:24;98930.06;;;14.52;45.08
32875;BME280;40468;42.128;24.750;2023-04-02T07:32:56;98858.13;;;14.10;44.98
32875;BME280;40468;42.128;24.750;2023-04-02T07:34:28;98920.72;;;14.48;44.75
32875;BME280;40468;42.128;24.750;2023-04-02T07:36:00;98944.47;;;14.58;44.51
32875;BME280;40468;42.128;24.750;2023-04-02T07:37:32;98932.09;;;14.60;44.53
32875;BME280;40468;42.128;24.750;2023-04-02T07:39:05;98930.94;;;14.64;44.33
32875;BME280;40468;42.128;24.750;2023-04-02T07:40:37;98930.81;;;14.66;44.68
32875;BME280;40468;42.128;24.750;2023-04-02T07:42:09;98930.25;;;14.73;44.40
32875;BME280;40468;42.128;24.750;2023-04-02T07:43:41;98920.69;;;14.84;44.19
32875;BME280;40468;42.128;24.750;2023-04-02T07:45:14;98928.94;;;15.01;43.96
32875;BME280;40468;42.128;24.750;2023-04-02T07:46:46;98929.44;;;15.18;43.78
32875;BME280;40468;42.128;24.750;2023-04-02T07:48:17;98929.88;;;15.34;43.60
32875;BME280;40468;42.128;24.750;2023-04-02T07:49:49;98932.00;;;15.52;43.28
32875;BME280;40468;42.128;24.750;2023-04-02T07:51:24;98884.34;;;15.35;42.60
32875;BME280;40468;42.128;24.750;2023-04-02T07:52:56;98872.97;;;15.46;42.21
32875;BME280;40468;42.128;24.750;2023-04-02T07:54:30;98874.84;;;15.66;42.03
32875;BME280;40468;42.128;24.750;2023-04-02T07:56:02;98908.50;;;16.05;41.64
32875;BME280;40468;42.128;24.750;2023-04-02T07:57:37;98917.06;;;16.18;41.44
32875;BME280;40468;42.128;24.750;2023-04-02T07:59:11;98913.47;;;16.40;41.20
32875;BME280;40468;42.128;24.750;2023-04-02T08:00:43;98920.78;;;16.57;40.74
32875;BME280;40468;42.128;24.750;2023-04-02T08:02:18;98914.22;;;16.73;40.39
32875;BME280;40468;42.128;24.750;2023-04-02T08:03:51;98915.28;;;16.81;39.83
32875;BME280;40468;42.128;24.750;2023-04-02T08:05:23;98904.94;;;16.90;39.58
32875;BME280;40468;42.128;24.750;2023-04-02T08:06:55;98913.97;;;16.97;39.54
32875;BME280;40468;42.128;24.750;2023-04-02T08:08:27;98902.78;;;17.04;39.30
32875;BME280;40468;42.128;24.750;2023-04-02T08:10:01;98906.56;;;17.12;39.29
32875;BME280;40468;42.128;24.750;2023-04-02T08:11:33;98914.22;;;17.24;39.12
32875;BME280;40468;42.128;24.750;2023-04-02T08:13:05;98914.81;;;17.38;39.22
32875;BME280;40468;42.128;24.750;2023-04-02T08:14:37;98916.38;;;17.50;38.79
32875;BME280;40468;42.128;24.750;2023-04-02T08:16:09;98913.91;;;17.58;38.21
32875;BME280;40468;42.128;24.750;2023-04-02T08:17:41;98915.44;;;17.61;37.73
32875;BME280;40468;42.128;24.750;2023-04-02T08:19:13;98895.56;;;17.47;37.46
32875;BME280;40468;42.128;24.750;2023-04-02T08:20:45;98912.25;;;17.67;37.31
32875;BME280;40468;42.128;24.750;2023-04-02T08:22:16;98906.72;;;17.70;37.18
32875;BME280;40468;42.128;24.750;2023-04-02T08:23:48;98915.47;;;17.80;37.01
32875;BME280;40468;42.128;24.750;2023-04-02T08:25:22;98916.72;;;17.86;36.24